LFCR/RDZ METAR and TAF weather

Enter ICAO airport designator
Station Type Date Time Source
LFCR METAR 2022/01/18 08:00 UTC NOAA

LFCR 180800Z AUTO 07003KT CAVOK M04/M04 Q1029 NOSIG


Station Type Date Time Source
LFCR Decoded METAR 2022/01/18 08:00 UTC NOAA

Rodez, France (LFCR) 44-24N 002-29E 580M
Jan 18, 2022 - 03:00 AM EST / 2022.01.18 0800 UTC
Wind: from the ENE (070 degrees) at 3 MPH (3 KT):0
Visibility: greater than 7 mile(s):0
Temperature: 24 F (-4 C)
Dew Point: 24 F (-4 C)
Relative Humidity: 100%
Pressure (altimeter): 30.39 in. Hg (1029 hPa)
ob: LFCR 180800Z AUTO 07003KT CAVOK M04/M04 Q1029 NOSIG
cycle: 8

Station Type Date Time Source
LFCR TAF 2022/01/18 06:42 UTC NOAA

TAF LFCR 180500Z 1806/1906 VRB02KT CAVOK
BECMG 1818/1820 3000 BR
BECMG 1820/1821 0800 FG VV/// PROB40
TEMPO 1901/1906 FZFG

Example: see airport list